createdAt,value
2022-12-22T00:12:55.159Z,21.07
2022-12-22T00:28:17.543Z,22.27
2022-12-22T00:43:38.800Z,22.57
2022-12-22T00:59:01.035Z,22.87
2022-12-22T01:14:23.681Z,27.40
2022-12-22T01:29:46.524Z,39.70
2022-12-22T01:45:08.925Z,27.97
2022-12-22T02:00:32.131Z,29.60
2022-12-22T02:15:58.545Z,26.50
2022-12-22T02:31:23.412Z,24.97
2022-12-22T02:46:45.078Z,26.60
2022-12-22T03:02:08.719Z,29.80
2022-12-22T03:17:30.292Z,27.17
2022-12-22T03:32:35.005Z,26.47
2022-12-22T03:47:39.170Z,25.87
2022-12-22T04:02:42.390Z,25.90
2022-12-22T04:17:45.644Z,23.40
2022-12-22T04:32:51.177Z,23.13
2022-12-22T04:47:54.986Z,26.50
2022-12-22T05:02:58.965Z,23.17
2022-12-22T05:18:03.153Z,25.67
2022-12-22T05:33:06.306Z,28.20
2022-12-22T05:48:09.356Z,26.60
2022-12-22T06:03:13.833Z,26.57
2022-12-22T06:18:17.746Z,32.53
2022-12-22T06:33:22.829Z,41.70
2022-12-22T07:21:10.214Z,47.83
2022-12-22T07:36:20.410Z,55.27
2022-12-22T07:51:24.619Z,58.37
2022-12-22T08:06:28.865Z,62.90
2022-12-22T08:21:33.427Z,63.60
2022-12-22T08:36:40.893Z,62.87
2022-12-22T08:51:45.800Z,65.63
2022-12-22T09:06:49.409Z,65.50
2022-12-22T09:21:52.722Z,55.67
2022-12-22T09:36:57.467Z,55.03
2022-12-22T09:52:03.414Z,55.80
2022-12-22T10:07:26.961Z,54.37
2022-12-22T10:22:36.749Z,58.87
2022-12-22T10:37:41.921Z,59.40
2022-12-22T10:53:07.389Z,62.43
2022-12-22T11:08:21.312Z,65.63
2022-12-22T11:23:40.544Z,61.93
2022-12-22T11:38:49.648Z,62.47
2022-12-22T11:53:53.681Z,58.80
2022-12-22T12:08:59.952Z,63.40
2022-12-22T12:24:17.384Z,57.57
2022-12-22T12:39:35.326Z,59.20
2022-12-22T12:54:44.506Z,57.53
2022-12-22T13:10:11.155Z,59.40
2022-12-22T13:25:19.003Z,59.33
2022-12-22T13:40:23.623Z,54.40
2022-12-22T13:55:29.869Z,53.70
2022-12-22T14:10:37.500Z,47.40
2022-12-22T14:25:43.851Z,45.50
2022-12-22T14:40:52.507Z,37.47
2022-12-22T14:56:01.579Z,39.00
2022-12-22T15:11:10.765Z,46.60
2022-12-22T15:26:15.817Z,45.63
2022-12-22T15:41:19.944Z,45.70
2022-12-22T15:56:24.768Z,37.00
2022-12-22T16:11:29.293Z,39.93
2022-12-22T16:26:33.177Z,44.53
2022-12-22T16:41:37.191Z,47.90
2022-12-22T16:56:47.090Z,45.77
2022-12-22T17:11:50.371Z,34.80
2022-12-22T17:26:53.464Z,36.23
2022-12-22T17:41:57.758Z,41.60
2022-12-22T17:57:03.204Z,46.87
2022-12-22T18:12:22.124Z,52.30
2022-12-22T18:27:25.861Z,51.00
2022-12-22T18:42:30.010Z,44.90
2022-12-22T18:57:33.095Z,45.83
2022-12-22T19:12:36.161Z,43.83
2022-12-22T19:27:39.733Z,38.80
2022-12-22T19:42:45.585Z,43.93
2022-12-22T19:57:51.807Z,41.97
2022-12-22T20:12:59.140Z,47.80
2022-12-22T20:28:02.307Z,46.20
2022-12-22T20:43:05.773Z,63.37
2022-12-22T20:58:16.789Z,78.50
2022-12-22T21:13:21.098Z,67.23
2022-12-22T21:28:33.452Z,60.40
2022-12-22T21:43:38.002Z,50.00
2022-12-22T21:58:41.747Z,49.10
2022-12-22T22:13:45.672Z,55.00
2022-12-22T22:28:50.026Z,52.50
2022-12-22T22:43:57.954Z,50.73
2022-12-22T22:59:01.674Z,50.23
2022-12-22T23:14:05.446Z,40.77
2022-12-22T23:29:10.091Z,44.80
2022-12-22T23:44:13.383Z,48.53
2022-12-22T23:59:16.632Z,48.20
